Time;durP1;ratioP1;P1;durP2;ratioP2;P2;SDS_P1;SDS_P2;PMS_P1;PMS_P2;Temp;Humidity;BMP_temperature;BMP_pressure;BME280_temperature;BME280_humidity;BME280_pressure;Samples;Min_cycle;Max_cycle;Signal;HPM_P1;HPM_P2
2022/07/04 00:00:14;;;;;;;5.72;2.72;;;;;;;18.45;75.52;94123.00;5031004;28;20045;-66
2022/07/04 00:02:42;;;;;;;6.22;2.83;;;;;;;18.39;75.94;94119.31;5031006;28;20597;-66
2022/07/04 00:05:10;;;;;;;5.20;2.33;;;;;;;18.38;75.42;94118.53;5032144;28;20376;-66
2022/07/04 00:07:39;;;;;;;6.03;2.67;;;;;;;18.38;76.60;94123.31;5031917;28;20449;-65
2022/07/04 00:10:08;;;;;;;7.50;2.60;;;;;;;18.31;74.94;94113.25;5013802;28;20055;-64
2022/07/04 00:12:37;;;;;;;4.40;2.38;;;;;;;18.20;74.03;94104.63;5032075;28;20053;-63
2022/07/04 00:15:05;;;;;;;24.27;2.70;;;;;;;18.28;73.63;94100.31;5030797;28;20049;-65
2022/07/04 00:17:32;;;;;;;5.10;2.57;;;;;;;18.33;74.52;94103.25;5032460;28;20042;-65
2022/07/04 00:19:59;;;;;;;4.28;2.50;;;;;;;18.30;76.81;94095.06;5051177;28;20725;-65
2022/07/04 00:22:26;;;;;;;3.83;2.30;;;;;;;18.24;75.18;94108.78;5051730;28;20045;-65
2022/07/04 00:24:53;;;;;;;6.18;2.42;;;;;;;18.16;74.68;94113.88;5051864;28;20436;-65
2022/07/04 00:27:19;;;;;;;5.90;2.85;;;;;;;18.19;75.62;94106.63;5051574;28;20045;-65
2022/07/04 00:29:46;;;;;;;4.60;3.33;;;;;;;18.21;74.13;94120.03;5042965;28;20042;-65
2022/07/04 00:32:13;;;;;;;3.95;2.83;;;;;;;18.21;73.75;94117.28;5046285;28;20037;-65
2022/07/04 00:34:40;;;;;;;5.32;2.95;;;;;;;18.22;73.88;94108.47;5038861;28;20052;-65
2022/07/04 00:37:07;;;;;;;4.47;2.70;;;;;;;18.12;76.74;94116.03;5051631;28;20033;-65
2022/07/04 00:39:33;;;;;;;5.20;3.00;;;;;;;18.02;78.02;94119.25;5051813;28;20049;-65
2022/07/04 00:42:07;;;;;;;6.50;3.20;;;;;;;18.12;79.25;94124.34;5050831;28;20052;-68
2022/07/04 00:44:36;;;;;;;13.52;9.10;;;;;;;18.17;77.21;94126.53;5049912;28;20067;-62
2022/07/04 00:47:04;;;;;;;6.80;3.97;;;;;;;18.17;76.11;94101.53;5046927;28;20169;-66
2022/07/04 00:49:32;;;;;;;4.43;2.78;;;;;;;17.82;78.62;94100.19;5042894;28;20041;-66
2022/07/04 00:52:00;;;;;;;5.22;2.88;;;;;;;17.79;79.31;94126.88;5035140;28;20034;-67
2022/07/04 00:54:30;;;;;;;5.03;2.80;;;;;;;17.78;80.93;94147.50;5033974;28;20056;-66
2022/07/04 00:56:58;;;;;;;4.22;2.53;;;;;;;17.75;80.20;94140.88;5031818;28;20045;-66
2022/07/04 00:59:25;;;;;;;4.65;2.63;;;;;;;17.87;79.50;94135.72;5035275;28;20041;-66
2022/07/04 01:01:52;;;;;;;4.75;2.70;;;;;;;17.57;80.09;94129.72;5050360;28;20467;-66
2022/07/04 01:04:19;;;;;;;6.43;2.83;;;;;;;17.02;82.76;94137.72;5021652;28;20045;-66
2022/07/04 01:06:46;;;;;;;4.53;2.80;;;;;;;17.34;81.97;94134.53;5029645;28;20037;-65
2022/07/04 01:09:13;;;;;;;5.22;2.83;;;;;;;17.55;82.62;94130.16;5029539;28;20445;-66
2022/07/04 01:11:40;;;;;;;5.57;2.95;;;;;;;17.64;82.35;94139.75;4996503;28;20047;-65
2022/07/04 01:14:07;;;;;;;5.15;2.80;;;;;;;17.71;82.15;94139.47;5023285;28;20041;-65
2022/07/04 01:16:34;;;;;;;5.32;3.28;;;;;;;17.71;83.08;94140.25;5031280;28;20048;-66
2022/07/04 01:19:03;;;;;;;5.63;2.90;;;;;;;17.73;82.45;94142.56;5049971;28;21524;-65
2022/07/04 01:21:31;;;;;;;5.63;3.03;;;;;;;17.70;81.57;94140.69;5050622;28;20051;-66
2022/07/04 01:23:58;;;;;;;5.00;3.17;;;;;;;17.36;83.31;94145.16;5050868;28;20051;-66
2022/07/04 01:26:25;;;;;;;4.78;2.80;;;;;;;17.38;83.19;94151.03;5049440;28;20049;-66
2022/07/04 01:28:51;;;;;;;5.38;2.92;;;;;;;17.59;82.55;94155.00;5043159;28;20054;-65
2022/07/04 01:31:18;;;;;;;5.53;3.43;;;;;;;17.64;83.52;94162.72;5042838;28;20048;-65
2022/07/04 01:33:45;;;;;;;5.55;2.90;;;;;;;17.63;82.17;94166.75;5042523;28;20073;-65
2022/07/04 01:36:12;;;;;;;11.73;5.75;;;;;;;17.71;81.79;94168.00;5050445;28;20041;-66
2022/07/04 01:38:38;;;;;;;4.95;3.10;;;;;;;17.16;84.37;94170.47;5050232;28;20071;-65
2022/07/04 01:41:05;;;;;;;5.35;3.30;;;;;;;17.05;85.10;94170.09;5050596;28;20037;-66
2022/07/04 01:43:32;;;;;;;7.17;3.10;;;;;;;16.91;85.66;94183.22;5050513;28;20389;-66
2022/07/04 01:45:58;;;;;;;7.07;3.10;;;;;;;17.21;85.40;94177.44;5049989;28;20151;-66
2022/07/04 01:48:25;;;;;;;6.38;3.40;;;;;;;17.31;84.60;94162.41;5049221;28;20041;-67
2022/07/04 01:50:52;;;;;;;6.25;3.42;;;;;;;17.25;84.91;94167.00;5050123;28;20049;-65
2022/07/04 01:53:19;;;;;;;5.53;3.58;;;;;;;17.28;85.69;94183.47;5048957;28;20397;-66
2022/07/04 01:55:45;;;;;;;5.50;3.30;;;;;;;17.32;86.42;94180.59;5049588;28;20045;-65
2022/07/04 01:58:12;;;;;;;5.72;3.50;;;;;;;17.33;85.39;94174.59;5050115;28;20052;-66
2022/07/04 02:03:24;;;;;;;6.55;3.45;;;;;;;17.42;84.24;94159.22;5039918;28;20052;-66
2022/07/04 02:05:50;;;;;;;6.90;3.90;;;;;;;17.40;84.45;94154.13;5029722;28;20045;-65
2022/07/04 02:08:17;;;;;;;6.33;3.03;;;;;;;17.40;83.33;94164.44;5048255;28;20048;-66
2022/07/04 02:10:45;;;;;;;6.50;3.50;;;;;;;17.49;83.55;94172.84;5043946;28;20052;-65
2022/07/04 02:13:11;;;;;;;5.22;3.83;;;;;;;17.39;83.45;94169.22;5039183;28;20417;-66
2022/07/04 02:15:40;;;;;;;5.47;3.50;;;;;;;17.36;83.22;94182.03;5030038;28;20499;-65
2022/07/04 02:18:10;;;;;;;5.53;3.60;;;;;;;17.28;82.53;94183.47;5030673;28;20134;-66
2022/07/04 02:20:37;;;;;;;5.73;3.43;;;;;;;16.70;86.33;94181.97;5030170;28;20044;-65
2022/07/04 02:23:05;;;;;;;7.20;3.72;;;;;;;16.33;89.59;94192.69;5037208;28;20050;-66
2022/07/04 02:25:32;;;;;;;6.43;4.28;;;;;;;16.23;89.81;94191.03;5048550;28;20056;-66
2022/07/04 02:27:58;;;;;;;6.32;4.43;;;;;;;16.28;90.90;94192.47;5047966;28;20044;-65
2022/07/04 02:30:25;;;;;;;8.77;4.35;;;;;;;16.67;90.09;94193.16;5046374;28;20494;-65
2022/07/04 02:32:52;;;;;;;5.43;4.27;;;;;;;16.84;89.25;94177.97;5036084;28;20048;-66
2022/07/04 02:35:19;;;;;;;7.07;4.07;;;;;;;16.58;89.06;94178.00;5044065;28;20114;-66
2022/07/04 02:37:46;;;;;;;5.17;3.70;;;;;;;16.81;87.92;94183.59;5048959;28;20067;-66
2022/07/04 02:40:13;;;;;;;5.32;3.80;;;;;;;16.89;88.33;94184.91;5049222;28;20499;-66
2022/07/04 02:42:39;;;;;;;7.43;3.80;;;;;;;16.98;87.34;94190.50;5048907;28;20036;-65
2022/07/04 02:45:07;;;;;;;7.27;4.30;;;;;;;16.99;88.13;94191.31;5049498;28;20037;-66
2022/07/04 02:47:34;;;;;;;6.00;3.90;;;;;;;17.01;87.40;94191.63;5045490;28;20049;-66
2022/07/04 02:50:02;;;;;;;7.22;3.60;;;;;;;17.01;86.26;94188.88;5009049;28;21623;-66
2022/07/04 02:52:29;;;;;;;19.90;12.38;;;;;;;17.00;86.38;94193.59;5040971;28;20418;-66
2022/07/04 02:54:57;;;;;;;12.77;7.18;;;;;;;16.88;85.90;94205.53;5040299;28;20041;-66
2022/07/04 02:57:24;;;;;;;14.63;9.43;;;;;;;16.86;86.30;94207.97;5043670;28;20055;-66
2022/07/04 02:59:50;;;;;;;8.88;4.80;;;;;;;16.71;86.42;94219.53;5048617;28;20056;-66
2022/07/04 03:02:17;;;;;;;8.73;5.88;;;;;;;16.61;86.43;94239.28;5048757;28;20036;-66
2022/07/04 03:04:44;;;;;;;5.80;3.90;;;;;;;16.44;86.83;94222.81;5048593;28;20075;-66
2022/07/04 03:07:11;;;;;;;7.43;4.28;;;;;;;15.98;90.72;94238.91;5049065;28;20052;-66
2022/07/04 03:09:38;;;;;;;8.37;4.20;;;;;;;16.12;91.40;94235.72;5042244;28;20056;-66
2022/07/04 03:12:05;;;;;;;7.38;3.92;;;;;;;16.30;90.73;94226.84;5045604;28;20431;-66
2022/07/04 03:14:32;;;;;;;6.55;4.00;;;;;;;16.44;90.85;94230.34;5027875;28;20106;-66
2022/07/04 03:16:58;;;;;;;8.23;4.47;;;;;;;16.55;90.34;94239.84;5032963;28;20047;-66
2022/07/04 03:19:25;;;;;;;6.82;4.22;;;;;;;16.53;89.98;94233.97;5013686;28;20049;-66
2022/07/04 03:21:52;;;;;;;9.43;4.10;;;;;;;16.35;90.31;94240.09;5036468;28;20413;-66
2022/07/04 03:24:19;;;;;;;10.07;4.20;;;;;;;16.37;88.73;94237.66;5037631;28;20039;-66
2022/07/04 03:26:46;;;;;;;6.97;4.10;;;;;;;16.40;89.31;94236.00;5047097;28;20446;-66
2022/07/04 03:29:12;;;;;;;6.28;4.20;;;;;;;16.47;88.84;94246.84;5043196;28;20073;-66
2022/07/04 03:31:39;;;;;;;7.00;4.15;;;;;;;16.51;89.63;94249.50;5028271;28;20053;-66
2022/07/04 03:34:06;;;;;;;6.67;4.10;;;;;;;16.27;89.77;94249.88;5040287;28;20033;-66
2022/07/04 03:36:33;;;;;;;6.63;4.10;;;;;;;16.29;90.36;94246.66;5047357;28;20410;-66
2022/07/04 03:39:00;;;;;;;5.15;4.10;;;;;;;16.43;89.79;94251.72;5047732;28;20192;-66
2022/07/04 03:41:26;;;;;;;5.57;4.20;;;;;;;16.21;90.68;94250.88;5048506;28;20409;-66
2022/07/04 03:43:53;;;;;;;6.80;4.20;;;;;;;15.99;91.62;94259.84;5048261;28;20045;-66
2022/07/04 03:46:20;;;;;;;6.70;4.53;;;;;;;16.04;92.55;94247.44;5046748;28;20051;-66
2022/07/04 03:48:47;;;;;;;6.40;4.35;;;;;;;16.26;91.68;94247.53;5034501;28;20071;-66
2022/07/04 03:51:14;;;;;;;6.50;4.30;;;;;;;16.40;91.15;94249.88;5048401;28;20041;-66
2022/07/04 03:53:42;;;;;;;6.28;3.90;;;;;;;16.50;90.22;94247.94;5048125;28;20049;-66
2022/07/04 03:56:08;;;;;;;5.93;4.40;;;;;;;16.53;89.62;94249.84;5048545;28;20425;-66
2022/07/04 03:58:36;;;;;;;5.77;4.10;;;;;;;16.56;87.59;94254.50;5047797;28;20056;-66
2022/07/04 04:01:03;;;;;;;5.50;3.90;;;;;;;16.60;87.31;94248.81;5048721;28;20049;-66
2022/07/04 04:06:15;;;;;;;5.35;3.67;;;;;;;16.74;85.92;94242.78;5009818;28;20410;-66
2022/07/04 04:08:42;;;;;;;7.78;4.25;;;;;;;16.75;87.25;94249.91;5022046;28;20047;-66
2022/07/04 04:11:08;;;;;;;5.90;4.40;;;;;;;16.81;86.53;94248.13;5003210;28;20432;-66
2022/07/04 04:13:35;;;;;;;5.72;4.07;;;;;;;16.82;86.32;94244.16;5004375;28;20465;-65
2022/07/04 04:16:02;;;;;;;6.80;4.05;;;;;;;16.82;85.92;94243.34;5007016;28;20441;-66
2022/07/04 04:18:29;;;;;;;6.07;4.20;;;;;;;16.86;85.86;94238.47;5028282;28;20053;-66
2022/07/04 04:20:55;;;;;;;6.18;4.32;;;;;;;16.80;86.49;94238.22;5031111;28;20041;-66
2022/07/04 04:23:22;;;;;;;6.70;4.00;;;;;;;16.81;86.06;94250.13;5034098;28;20385;-66
2022/07/04 04:25:49;;;;;;;5.72;4.18;;;;;;;16.84;85.88;94249.22;5048037;28;20059;-66
2022/07/04 04:28:22;;;;;;;5.82;3.80;;;;;;;16.86;85.58;94244.00;5051410;28;20045;-66
2022/07/04 04:30:52;;;;;;;5.85;4.18;;;;;;;16.92;85.81;94245.78;5044086;28;20051;-66
2022/07/04 04:33:18;;;;;;;5.18;3.95;;;;;;;16.88;84.38;94241.56;5030449;28;20478;-66
2022/07/04 04:35:45;;;;;;;7.10;4.17;;;;;;;16.90;85.06;94245.47;5019954;28;20041;-66
2022/07/04 04:38:12;;;;;;;6.57;4.60;;;;;;;17.00;84.93;94239.97;5050374;28;20045;-66
2022/07/04 04:40:38;;;;;;;6.05;4.18;;;;;;;17.11;84.69;94238.38;5049081;28;20231;-66
2022/07/04 04:43:05;;;;;;;8.57;4.00;;;;;;;17.23;84.12;94239.56;5051511;28;20045;-66
2022/07/04 04:45:32;;;;;;;8.45;3.95;;;;;;;17.19;83.93;94238.91;5051307;28;20060;-66
2022/07/04 04:47:59;;;;;;;4.93;3.77;;;;;;;17.30;83.73;94233.72;5041586;28;20047;-66
2022/07/04 04:50:25;;;;;;;6.15;4.00;;;;;;;17.35;82.77;94235.94;5043755;28;20048;-66
2022/07/04 04:52:52;;;;;;;5.10;3.67;;;;;;;17.40;82.28;94236.59;5050952;28;20049;-66
2022/07/04 04:55:19;;;;;;;7.10;4.15;;;;;;;17.40;82.56;94239.34;5032810;28;20062;-66
2022/07/04 04:57:45;;;;;;;6.57;4.22;;;;;;;17.35;83.22;94230.41;5031985;28;20050;-66
2022/07/04 05:00:12;;;;;;;6.83;4.33;;;;;;;17.50;82.25;94229.88;5051410;28;20055;-66
2022/07/04 05:02:39;;;;;;;6.78;3.72;;;;;;;17.51;81.98;94232.19;5036863;28;20049;-66
2022/07/04 05:05:06;;;;;;;6.88;4.40;;;;;;;17.26;83.78;94233.09;5041292;28;20037;-67
2022/07/04 05:07:33;;;;;;;6.60;4.10;;;;;;;17.44;83.44;94243.53;5051065;28;20049;-66
2022/07/04 05:10:01;;;;;;;6.75;4.10;;;;;;;17.46;82.92;94240.31;5044700;28;21469;-66
2022/07/04 05:12:28;;;;;;;6.80;4.20;;;;;;;17.43;82.71;94253.09;5050776;28;20692;-66
2022/07/04 05:14:56;;;;;;;6.82;4.18;;;;;;;17.40;83.46;94254.00;5050736;28;20049;-66
2022/07/04 05:17:23;;;;;;;8.45;4.40;;;;;;;16.95;86.08;94252.41;5050648;28;20166;-66
2022/07/04 05:19:50;;;;;;;8.27;4.40;;;;;;;16.58;88.47;94258.38;5050379;28;20053;-66
2022/07/04 05:22:17;;;;;;;7.40;4.45;;;;;;;16.51;88.60;94264.13;5042245;28;20396;-66
2022/07/04 05:24:44;;;;;;;7.90;4.70;;;;;;;16.62;88.25;94269.34;5031022;28;20045;-66
2022/07/04 05:27:11;;;;;;;6.93;4.22;;;;;;;16.78;87.71;94282.25;5050787;28;20479;-66
2022/07/04 05:29:38;;;;;;;6.07;4.43;;;;;;;16.80;87.42;94284.56;5048475;28;20053;-66
2022/07/04 05:32:06;;;;;;;7.63;4.78;;;;;;;16.72;88.25;94286.81;5050782;28;20045;-66
2022/07/04 05:34:34;;;;;;;5.65;4.70;;;;;;;16.75;88.38;94295.00;5024476;28;20037;-66
2022/07/04 05:37:02;;;;;;;6.77;4.90;;;;;;;16.84;87.89;94286.06;5049608;28;20907;-66
2022/07/04 05:39:29;;;;;;;6.47;4.45;;;;;;;16.99;87.47;94296.66;5050206;28;20041;-66
2022/07/04 05:41:56;;;;;;;8.40;4.82;;;;;;;16.94;87.58;94289.66;5050191;28;20114;-66
2022/07/04 05:44:23;;;;;;;6.22;4.85;;;;;;;16.77;88.22;94289.03;5050449;28;20044;-66
2022/07/04 05:46:49;;;;;;;7.82;4.63;;;;;;;16.68;88.71;94292.50;5050132;28;20512;-66
2022/07/04 05:49:16;;;;;;;8.87;4.93;;;;;;;16.52;90.59;94292.59;5050649;28;20113;-66
2022/07/04 05:51:43;;;;;;;7.88;5.22;;;;;;;16.67;89.70;94287.38;5048193;28;20049;-66
2022/07/04 05:54:10;;;;;;;9.30;5.10;;;;;;;17.02;88.55;94287.44;5050497;28;20051;-66
2022/07/04 05:56:37;;;;;;;7.07;5.00;;;;;;;17.26;87.48;94283.00;5049696;28;20045;-66
2022/07/04 05:59:04;;;;;;;7.85;4.70;;;;;;;17.37;87.96;94286.19;5050238;28;20045;-66
2022/07/04 06:01:31;;;;;;;10.30;5.10;;;;;;;17.50;86.97;94282.59;5050119;28;20405;-66
2022/07/04 06:03:58;;;;;;;8.65;4.75;;;;;;;17.69;85.48;94278.72;5049607;28;20045;-66
2022/07/04 06:06:24;;;;;;;6.47;4.60;;;;;;;17.96;84.71;94274.56;5049956;28;20041;-66
2022/07/04 06:08:51;;;;;;;5.40;4.05;;;;;;;17.82;83.61;94266.75;5048439;28;20071;-66
2022/07/04 06:11:18;;;;;;;7.65;4.53;;;;;;;18.13;84.32;94267.56;5049610;28;20047;-67
2022/07/04 06:13:45;;;;;;;5.57;4.13;;;;;;;18.36;83.03;94276.59;5014649;28;20046;-67
2022/07/04 06:16:11;;;;;;;7.20;4.30;;;;;;;18.20;81.49;94263.72;5020451;28;20069;-67
2022/07/04 06:18:38;;;;;;;6.80;3.60;;;;;;;18.15;81.02;94264.34;5018559;28;20099;-66
2022/07/04 06:21:05;;;;;;;5.82;3.70;;;;;;;18.14;80.77;94260.00;5036257;28;20056;-67
2022/07/04 06:23:32;;;;;;;7.10;3.85;;;;;;;17.89;81.88;94264.50;5042508;28;20047;-67
2022/07/04 06:25:59;;;;;;;5.00;3.50;;;;;;;17.96;80.81;94263.47;5049350;28;20045;-66
2022/07/04 06:28:26;;;;;;;6.40;4.00;;;;;;;17.91;82.44;94259.28;5047887;28;20397;-66
2022/07/04 06:31:13;;;;;;;5.80;3.83;;;;;;;17.93;81.41;94251.28;5021448;28;21116;-66
2022/07/04 06:36:25;;;;;;;4.72;3.33;;;;;;;17.93;80.39;94256.81;5008107;28;20148;-68
2022/07/04 06:38:52;;;;;;;5.90;3.20;;;;;;;18.22;79.94;94257.72;5019090;28;20054;-67
2022/07/04 06:41:18;;;;;;;7.05;3.50;;;;;;;18.34;79.52;94256.84;5011899;28;20052;-67
2022/07/04 06:43:45;;;;;;;5.60;3.67;;;;;;;18.58;77.64;94261.84;5047043;28;20459;-65
2022/07/04 06:46:12;;;;;;;6.22;3.50;;;;;;;18.46;77.42;94253.16;5035159;28;20037;-66
2022/07/04 06:48:39;;;;;;;5.40;3.50;;;;;;;18.18;78.33;94249.53;5037001;28;20106;-66
2022/07/04 06:51:06;;;;;;;5.90;3.30;;;;;;;18.29;78.91;94237.97;5048879;28;20275;-65
2022/07/04 06:53:33;;;;;;;6.00;3.20;;;;;;;18.26;78.89;94231.34;5047385;28;20053;-67
2022/07/04 06:55:59;;;;;;;6.45;3.60;;;;;;;18.31;78.39;94241.88;5044483;28;20079;-65
2022/07/04 06:58:26;;;;;;;6.35;3.67;;;;;;;18.43;79.53;94240.22;5028651;28;20045;-66
2022/07/04 07:00:53;;;;;;;5.85;3.30;;;;;;;18.59;77.20;94253.03;5032707;28;20044;-67
2022/07/04 07:03:20;;;;;;;5.27;3.37;;;;;;;19.10;76.52;94249.00;5047972;28;20449;-65
2022/07/04 07:05:47;;;;;;;6.50;3.88;;;;;;;19.63;75.17;94251.41;5048299;28;20469;-65
2022/07/04 07:08:31;;;;;;;5.88;3.65;;;;;;;19.65;72.87;94250.97;5049314;28;20048;-65
2022/07/04 07:11:12;;;;;;;5.35;3.63;;;;;;;20.22;71.85;94253.94;5043542;28;20059;-65
2022/07/04 07:13:44;;;;;;;5.57;3.45;;;;;;;21.18;69.01;94242.09;5008976;28;20068;-67
2022/07/04 07:16:12;;;;;;;5.03;3.30;;;;;;;21.79;66.18;94235.38;5018699;28;20048;-66
2022/07/04 07:18:39;;;;;;;5.32;3.22;;;;;;;21.40;66.57;94247.34;5036194;28;20041;-66
2022/07/04 07:21:05;;;;;;;4.57;3.08;;;;;;;21.19;67.28;94249.22;5022273;28;20046;-66
2022/07/04 07:23:32;;;;;;;5.45;3.35;;;;;;;21.14;67.21;94256.22;5017607;28;20068;-66
2022/07/04 07:25:59;;;;;;;4.72;3.10;;;;;;;21.76;65.52;94250.31;5028319;28;20048;-65
2022/07/04 07:28:26;;;;;;;5.17;3.40;;;;;;;21.75;65.14;94241.13;5028925;28;20034;-65
2022/07/04 07:30:53;;;;;;;4.25;2.88;;;;;;;23.11;61.35;94247.56;5019156;28;20042;-66
2022/07/04 07:33:19;;;;;;;4.85;3.00;;;;;;;22.15;62.45;94234.19;5017506;28;20418;-65
2022/07/04 07:35:46;;;;;;;5.05;3.10;;;;;;;21.39;65.16;94231.84;5022947;28;20045;-65
2022/07/04 07:38:13;;;;;;;4.60;3.00;;;;;;;23.17;59.99;94225.25;5028765;28;20041;-66
2022/07/04 07:40:40;;;;;;;4.13;2.80;;;;;;;22.98;58.68;94218.34;5028183;28;20049;-65
2022/07/04 07:43:07;;;;;;;5.15;3.10;;;;;;;22.40;60.42;94220.91;5028781;28;20436;-66
2022/07/04 07:45:34;;;;;;;4.00;2.90;;;;;;;25.08;54.47;94205.69;5028526;28;20053;-65
2022/07/04 07:48:01;;;;;;;5.05;2.70;;;;;;;25.34;51.21;94207.63;5033753;28;20445;-66
2022/07/04 07:50:29;;;;;;;5.13;2.97;;;;;;;26.25;50.32;94187.56;5049127;28;20063;-66
2022/07/04 07:52:55;;;;;;;4.30;2.60;;;;;;;25.59;49.98;94186.22;5047052;28;20413;-67
2022/07/04 07:55:22;;;;;;;4.10;2.33;;;;;;;25.61;48.87;94180.84;5047411;28;20381;-66
2022/07/04 07:57:49;;;;;;;5.25;2.65;;;;;;;28.29;44.18;94173.38;5047917;28;20045;-66
2022/07/04 08:00:16;;;;;;;4.22;2.50;;;;;;;31.06;39.29;94164.72;5048413;28;20383;-66
2022/07/04 08:05:49;;;;;;;3.63;2.37;;;;;;;31.17;36.48;94166.56;5047670;28;20037;-66
2022/07/04 08:08:15;;;;;;;4.40;2.15;;;;;;;31.57;36.24;94160.84;5042970;28;20029;-66
2022/07/04 08:10:42;;;;;;;3.30;2.10;;;;;;;32.16;34.42;94172.69;5038138;28;20127;-66
2022/07/04 08:13:10;;;;;;;4.68;2.40;;;;;;;30.20;36.44;94163.91;5037933;28;20042;-66
2022/07/04 08:15:36;;;;;;;5.63;2.40;;;;;;;32.14;34.41;94160.38;5035522;28;20037;-66
2022/07/04 08:18:03;;;;;;;4.83;2.40;;;;;;;32.72;33.51;94156.34;5038457;28;20063;-66
2022/07/04 08:20:30;;;;;;;4.20;2.05;;;;;;;33.34;32.03;94156.72;5047849;28;20431;-66
2022/07/04 08:23:15;;;;;;;3.92;2.13;;;;;;;32.16;34.47;94157.75;5019742;28;20893;-67
2022/07/04 08:25:42;;;;;;;3.95;2.00;;;;;;;31.91;34.60;94157.25;5029127;28;20045;-66
2022/07/04 08:28:09;;;;;;;3.97;2.20;;;;;;;31.92;34.16;94168.06;5032166;28;20037;-65
2022/07/04 08:30:36;;;;;;;4.37;2.00;;;;;;;33.35;32.36;94169.66;5025629;28;20038;-67
2022/07/04 08:33:03;;;;;;;3.50;1.98;;;;;;;34.66;30.14;94165.09;5028276;28;20042;-66
2022/07/04 08:35:30;;;;;;;5.40;2.10;;;;;;;33.18;31.97;94162.34;5026574;28;20091;-66
2022/07/04 08:37:56;;;;;;;3.58;2.10;;;;;;;31.52;34.65;94175.94;5031497;28;20064;-66
2022/07/04 08:40:24;;;;;;;4.25;2.53;;;;;;;31.47;35.17;94179.66;5031866;28;20468;-65
2022/07/04 08:42:51;;;;;;;4.57;2.10;;;;;;;32.61;32.19;94170.84;5031097;28;20491;-65
2022/07/04 08:45:32;;;;;;;4.47;2.22;;;;;;;31.55;34.51;94180.50;5032275;28;20045;-66
2022/07/04 08:48:06;;;;;;;4.10;2.13;;;;;;;30.58;35.49;94189.28;5004490;28;20042;-67
2022/07/04 08:50:37;;;;;;;3.42;2.20;;;;;;;29.84;37.07;94186.81;5031860;28;20049;-66
2022/07/04 08:53:12;;;;;;;5.38;2.20;;;;;;;30.67;36.20;94178.31;5051064;28;20693;-65
2022/07/04 08:58:31;;;;;;;4.40;2.40;;;;;;;30.93;36.67;94188.16;5051601;28;20061;-65
2022/07/04 09:01:14;;;;;;;4.38;2.40;;;;;;;31.21;36.42;94178.34;5050881;28;20483;-65
2022/07/04 09:03:43;;;;;;;4.05;2.40;;;;;;;31.93;34.13;94177.34;5046992;28;20045;-66
2022/07/04 09:06:11;;;;;;;6.10;2.78;;;;;;;31.64;34.83;94174.38;5026848;28;20042;-66
2022/07/04 09:08:40;;;;;;;4.00;2.70;;;;;;;31.33;35.50;94176.03;5026283;28;20057;-67
2022/07/04 09:11:07;;;;;;;4.15;2.70;;;;;;;33.70;31.51;94182.34;5026286;28;20508;-66
2022/07/04 09:13:34;;;;;;;4.82;2.40;;;;;;;35.75;27.98;94177.84;5028215;28;20080;-66
2022/07/04 09:16:02;;;;;;;4.70;2.30;;;;;;;34.67;31.12;94177.25;5034581;28;20625;-67
2022/07/04 09:18:30;;;;;;;4.30;2.38;;;;;;;35.38;28.76;94175.28;5030278;28;20049;-67
2022/07/04 09:20:59;;;;;;;4.30;2.17;;;;;;;37.16;27.18;94178.63;5037617;28;20041;-67
2022/07/04 09:23:30;;;;;;;3.28;2.20;;;;;;;36.25;27.18;94177.22;5044667;28;20041;-66
2022/07/04 09:26:16;;;;;;;4.63;2.45;;;;;;;33.19;31.72;94178.09;5050536;28;20443;-67
2022/07/04 09:28:58;;;;;;;4.38;2.45;;;;;;;33.15;32.37;94179.78;5048426;28;20049;-67
2022/07/04 09:31:29;;;;;;;3.78;2.42;;;;;;;34.25;30.30;94178.34;5041200;28;20405;-66
2022/07/04 09:34:03;;;;;;;5.07;2.37;;;;;;;34.03;30.59;94179.78;5040957;28;20060;-66
2022/07/04 09:36:38;;;;;;;5.22;2.60;;;;;;;34.38;30.32;94169.63;5050635;28;20378;-66
2022/07/04 09:39:06;;;;;;;3.38;2.30;;;;;;;33.00;31.79;94174.72;5050100;28;20311;-66
2022/07/04 09:41:55;;;;;;;4.45;2.20;;;;;;;34.19;31.07;94169.97;5050665;28;20057;-66
2022/07/04 09:44:28;;;;;;;5.60;2.20;;;;;;;33.81;30.33;94172.72;5049706;28;20049;-66
2022/07/04 09:46:56;;;;;;;3.80;2.17;;;;;;;33.83;29.54;94176.50;5038971;28;20089;-66
2022/07/04 09:49:23;;;;;;;3.80;2.30;;;;;;;33.80;29.94;94182.56;5046756;28;20048;-66
2022/07/04 09:51:52;;;;;;;4.00;2.40;;;;;;;32.15;32.33;94187.44;5049745;28;20072;-66
2022/07/04 09:54:19;;;;;;;4.45;2.40;;;;;;;33.67;30.78;94183.47;5050126;28;20531;-66
2022/07/04 09:56:48;;;;;;;4.50;2.70;;;;;;;33.08;31.51;94183.28;5049611;28;20041;-66
2022/07/04 09:59:15;;;;;;;4.60;2.23;;;;;;;32.32;32.51;94181.38;5048913;28;20045;-66
2022/07/04 10:01:43;;;;;;;3.83;2.50;;;;;;;33.58;30.93;94176.19;5047998;28;20061;-66
2022/07/04 10:04:11;;;;;;;4.47;2.20;;;;;;;33.67;30.17;94177.03;5050333;28;20117;-66
2022/07/04 10:06:40;;;;;;;3.45;2.30;;;;;;;32.49;31.98;94176.00;5049530;28;20045;-67
2022/07/04 10:09:13;;;;;;;3.35;2.35;;;;;;;32.43;32.10;94181.06;5049491;28;20043;-66
2022/07/04 10:11:41;;;;;;;3.70;2.43;;;;;;;32.37;32.29;94172.69;5040481;28;20057;-66
2022/07/04 10:14:10;;;;;;;3.92;2.58;;;;;;;33.30;31.19;94167.72;5029174;28;20045;-67
2022/07/04 10:16:38;;;;;;;4.32;2.20;;;;;;;34.12;29.96;94164.25;5033946;28;20056;-67
2022/07/04 10:19:08;;;;;;;4.72;2.50;;;;;;;32.75;31.59;94160.16;5044332;28;20041;-66
2022/07/04 10:21:35;;;;;;;4.28;2.60;;;;;;;31.43;33.83;94160.88;5036840;28;20041;-67
2022/07/04 10:24:05;;;;;;;4.93;2.90;;;;;;;31.41;33.99;94162.72;5046184;28;20037;-67
2022/07/04 10:26:32;;;;;;;4.50;2.85;;;;;;;30.95;35.08;94165.72;5050024;28;20056;-68
2022/07/04 10:28:59;;;;;;;3.53;2.50;;;;;;;30.59;36.85;94168.91;5044661;28;20045;-66
2022/07/04 10:31:28;;;;;;;3.40;2.60;;;;;;;32.46;33.10;94160.09;5040147;28;20041;-67
2022/07/04 10:33:58;;;;;;;5.22;2.80;;;;;;;31.33;34.94;94167.53;5040307;28;20083;-67
2022/07/04 10:36:28;;;;;;;4.37;2.80;;;;;;;33.02;31.47;94157.84;5049870;28;20044;-68
2022/07/04 10:39:00;;;;;;;3.88;2.60;;;;;;;34.49;29.85;94162.03;5049415;28;20048;-67
2022/07/04 10:41:30;;;;;;;4.03;2.80;;;;;;;33.32;30.65;94170.75;5023143;28;20199;-67
2022/07/04 10:44:00;;;;;;;4.68;2.80;;;;;;;34.37;29.83;94158.78;5048824;28;20047;-67
2022/07/04 10:46:28;;;;;;;4.00;2.88;;;;;;;32.96;32.53;94146.66;5042101;28;20401;-67
2022/07/04 10:49:01;;;;;;;5.00;2.80;;;;;;;32.05;34.02;94155.91;5042469;28;20052;-67
2022/07/04 10:51:46;;;;;;;4.28;2.80;;;;;;;32.69;32.71;94151.00;5020176;28;20055;-67
2022/07/04 10:54:32;;;;;;;5.00;2.67;;;;;;;32.78;32.27;94142.75;5028980;28;20041;-67
2022/07/04 10:57:17;;;;;;;3.80;2.50;;;;;;;32.43;31.61;94139.22;5004503;28;20096;-67
2022/07/04 10:59:59;;;;;;;4.03;3.13;;;;;;;27.93;40.90;94150.09;5023800;28;20048;-67
2022/07/04 11:02:29;;;;;;;3.80;3.10;;;;;;;27.35;44.04;94150.97;5029278;28;20051;-67
2022/07/04 11:05:06;;;;;;;6.70;4.00;;;;;;;25.18;49.66;94148.03;5027230;28;20076;-65
2022/07/04 11:07:36;;;;;;;6.72;4.00;;;;;;;24.81;49.81;94148.94;5029733;28;20046;-65
2022/07/04 11:10:21;;;;;;;5.88;4.18;;;;;;;24.65;50.92;94158.00;5016241;28;20329;-65
2022/07/04 11:12:54;;;;;;;6.15;4.07;;;;;;;25.26;48.16;94154.72;5009240;28;20127;-65
2022/07/04 11:15:25;;;;;;;5.33;4.37;;;;;;;25.02;49.56;94165.59;5021891;28;20049;-64
2022/07/04 11:17:56;;;;;;;5.20;4.10;;;;;;;25.22;49.03;94162.63;5022647;28;20045;-65
2022/07/04 11:20:25;;;;;;;6.40;4.10;;;;;;;25.56;48.09;94162.72;5045226;28;20146;-66
2022/07/04 11:22:52;;;;;;;6.80;4.40;;;;;;;25.15;49.12;94163.06;5036534;28;20044;-65
2022/07/04 11:25:18;;;;;;;5.43;4.13;;;;;;;25.07;49.49;94171.25;5049049;28;20036;-65
2022/07/04 11:27:45;;;;;;;7.93;4.37;;;;;;;25.11;49.21;94171.75;5048283;28;20134;-65
2022/07/04 11:30:12;;;;;;;6.63;4.30;;;;;;;25.25;49.08;94167.25;5034876;28;20042;-67
2022/07/04 11:32:42;;;;;;;7.43;4.72;;;;;;;24.78;50.03;94163.97;5047286;28;20053;-64
2022/07/04 11:35:09;;;;;;;6.72;4.45;;;;;;;25.94;47.23;94157.66;5039255;28;20056;-65
2022/07/04 11:37:38;;;;;;;5.75;4.25;;;;;;;26.46;45.06;94156.31;5052585;28;20064;-65
2022/07/04 11:45:53;;;;;;;5.85;3.92;;;;;;;27.89;43.36;94142.69;5026480;28;20099;-64
2022/07/04 11:48:24;;;;;;;5.28;4.22;;;;;;;27.96;43.00;94137.75;5042043;28;20084;-65
2022/07/04 11:50:51;;;;;;;6.13;4.38;;;;;;;26.11;45.82;94133.09;5052076;28;20478;-65
2022/07/04 11:53:18;;;;;;;8.03;4.63;;;;;;;26.51;45.21;94135.88;5052919;28;20427;-66
2022/07/04 11:55:55;;;;;;;5.70;4.25;;;;;;;25.39;47.82;94128.94;5052132;28;20106;-65
2022/07/04 11:58:25;;;;;;;6.43;4.70;;;;;;;24.50;50.30;94130.16;5026290;28;20043;-64